Time;durP1;ratioP1;P1;durP2;ratioP2;P2;SDS_P1;SDS_P2;PMS_P1;PMS_P2;Temp;Humidity;BMP_temperature;BMP_pressure;BME280_temperature;BME280_humidity;BME280_pressure;Samples;Min_cycle;Max_cycle;Signal;HPM_P1;HPM_P2
2022/10/15 00:00:20;;;;;;;;;;;;;;;17.28;49.03;101182.69;5078462;28;1090;-46
2022/10/15 00:02:45;;;;;;;;;;;;;;;18.38;48.83;101185.41;5078839;28;1213;-47
2022/10/15 00:05:11;;;;;;;;;;;;;;;15.31;56.76;101184.03;5078340;28;1127;-47
2022/10/15 00:07:36;;;;;;;;;;;;;;;16.35;52.28;101175.78;5078635;28;1901;-50
2022/10/15 00:10:02;;;;;;;;;;;;;;;18.53;49.90;101179.06;5078241;28;1182;-47
2022/10/15 00:12:27;;;;;;;;;;;;;;;17.47;50.68;101173.16;5078566;28;1106;-47
2022/10/15 00:14:53;;;;;;;;;;;;;;;17.34;49.30;101186.28;5078553;28;1139;-50
2022/10/15 00:17:18;;;;;;;;;;;;;;;17.08;48.54;101177.94;5078300;28;1182;-50
2022/10/15 00:19:44;;;;;;;;;;;;;;;17.52;49.94;101176.75;5068532;28;1091;-52
2022/10/15 00:22:10;;;;;;;;;;;;;;;17.28;48.91;101171.72;5074950;28;1193;-48
2022/10/15 00:24:35;;;;;;;;;;;;;;;18.28;49.50;101171.66;5060811;28;1263;-49
2022/10/15 00:27:01;;;;;;;;;;;;;;;17.61;49.85;101166.03;5078069;28;1907;-49
2022/10/15 00:29:26;;;;;;;;;;;;;;;17.29;48.64;101161.53;5077914;28;880;-46
2022/10/15 00:31:53;;;;;;;;;;;;;;;17.19;47.80;101162.31;5078688;28;1150;-49
2022/10/15 00:34:19;;;;;;;;;;;;;;;17.06;47.15;101160.06;5078817;28;1170;-47
2022/10/15 00:36:45;;;;;;;;;;;;;;;18.07;48.50;101159.81;5060413;28;1356;-50
2022/10/15 00:39:10;;;;;;;;;;;;;;;17.49;48.55;101159.94;5078582;28;1079;-50
2022/10/15 00:41:38;;;;;;;;;;;;;;;18.55;48.79;101157.63;5054694;28;1202;-49
2022/10/15 00:44:22;;;;;;;;;;;;;;;14.91;57.69;101156.94;5078125;28;1130;-45
2022/10/15 00:46:56;;;;;;;;;;;;;;;17.66;51.90;101152.31;5078055;28;1902;-49
2022/10/15 00:49:34;;;;;;;;;;;;;;;16.75;54.20;101151.63;5060169;28;1215;-44
2022/10/15 00:52:04;;;;;;;;;;;;;;;17.00;55.55;101145.50;5076708;28;1348;-46
2022/10/15 00:54:33;;;;;;;;;;;;;;;19.17;50.39;101137.34;5059943;28;1080;-48
2022/10/15 00:56:59;;;;;;;;;;;;;;;14.77;61.15;101137.31;5060016;28;1143;-49
2022/10/15 00:59:25;;;;;;;;;;;;;;;16.65;52.08;101141.41;5077822;28;1138;-50
2022/10/15 01:01:51;;;;;;;;;;;;;;;18.13;52.36;101143.03;5056912;28;1091;-48
2022/10/15 01:04:17;;;;;;;;;;;;;;;17.36;51.89;101140.13;5066614;28;1120;-49
2022/10/15 01:06:43;;;;;;;;;;;;;;;17.12;50.22;101138.94;5060267;28;1968;-49
2022/10/15 01:09:09;;;;;;;;;;;;;;;17.21;50.06;101142.84;5077620;28;1202;-49
2022/10/15 01:11:43;;;;;;;;;;;;;;;17.87;50.96;101135.84;5058838;28;1413;-52
2022/10/15 01:14:12;;;;;;;;;;;;;;;17.29;50.24;101139.53;5060406;28;1084;-47
2022/10/15 01:16:45;;;;;;;;;;;;;;;17.20;49.60;101132.94;5077314;28;1244;-49
2022/10/15 01:19:11;;;;;;;;;;;;;;;18.06;50.60;101142.50;5077359;28;1166;-49
2022/10/15 01:21:42;;;;;;;;;;;;;;;17.49;49.83;101135.19;5077059;28;1138;-45
2022/10/15 01:24:16;;;;;;;;;;;;;;;17.27;48.81;101133.50;5077476;28;1162;-48
2022/10/15 01:26:48;;;;;;;;;;;;;;;18.10;50.03;101132.59;5059338;28;1901;-47
2022/10/15 01:29:34;;;;;;;;;;;;;;;17.52;49.43;101132.75;5059122;28;1541;-49
2022/10/15 01:32:05;;;;;;;;;;;;;;;17.23;48.08;101124.16;5076727;28;1217;-50
2022/10/15 01:34:37;;;;;;;;;;;;;;;18.24;48.98;101127.38;5042424;28;1119;-51
2022/10/15 01:37:10;;;;;;;;;;;;;;;17.48;49.09;101130.81;5059183;28;1226;-49
2022/10/15 01:39:40;;;;;;;;;;;;;;;18.45;49.41;101128.16;5057614;28;1118;-46
2022/10/15 01:42:09;;;;;;;;;;;;;;;15.22;57.80;101125.28;5052645;28;1239;-48
2022/10/15 01:44:39;;;;;;;;;;;;;;;16.53;51.86;101135.28;5059352;28;1131;-48
2022/10/15 01:47:13;;;;;;;;;;;;;;;18.26;50.52;101125.16;5059260;28;1909;-48
2022/10/15 01:49:40;;;;;;;;;;;;;;;17.41;50.70;101125.56;5059067;28;1123;-47
2022/10/15 01:52:09;;;;;;;;;;;;;;;17.18;49.46;101127.72;5059014;28;1210;-49
2022/10/15 01:54:34;;;;;;;;;;;;;;;18.04;50.35;101117.16;5059198;28;925;-45
2022/10/15 01:57:00;;;;;;;;;;;;;;;17.55;50.33;101120.38;5042188;28;1147;-51
2022/10/15 01:59:26;;;;;;;;;;;;;;;17.33;49.15;101115.91;5038763;28;1198;-47
2022/10/15 02:01:52;;;;;;;;;;;;;;;17.24;47.93;101109.31;5055433;28;1178;-45
2022/10/15 02:04:19;;;;;;;;;;;;;;;17.10;47.60;101115.31;5055390;28;1123;-50
2022/10/15 02:06:45;;;;;;;;;;;;;;;17.82;49.18;101108.31;5056531;28;1906;-51
2022/10/15 02:09:16;;;;;;;;;;;;;;;17.33;48.88;101115.91;5038753;28;1591;-49
2022/10/15 02:11:44;;;;;;;;;;;;;;;17.49;48.79;101110.47;5055313;28;2118;-51
2022/10/15 02:14:12;;;;;;;;;;;;;;;18.07;49.64;101111.09;5056384;28;1173;-47
2022/10/15 02:16:37;;;;;;;;;;;;;;;17.55;49.02;101117.63;5056886;28;956;-48
2022/10/15 02:19:07;;;;;;;;;;;;;;;17.29;48.25;101109.31;5055801;28;1032;-50
2022/10/15 02:21:35;;;;;;;;;;;;;;;18.10;48.87;101109.72;5055449;28;1209;-46
2022/10/15 02:24:04;;;;;;;;;;;;;;;17.43;49.01;101107.72;5054691;28;1199;-46
2022/10/15 02:26:29;;;;;;;;;;;;;;;18.46;48.64;101109.69;5050306;28;2335;-48
2022/10/15 02:28:56;;;;;;;;;;;;;;;15.55;56.96;101109.75;5033821;28;2084;-49
2022/10/15 02:31:21;;;;;;;;;;;;;;;16.57;51.94;101111.72;5068218;28;2129;-46
2022/10/15 02:33:47;;;;;;;;;;;;;;;18.15;50.95;101103.41;5048794;28;1844;-50
2022/10/15 02:36:12;;;;;;;;;;;;;;;17.40;50.87;101112.91;5043110;28;1825;-45
2022/10/15 02:38:38;;;;;;;;;;;;;;;17.14;49.82;101104.59;5049126;28;2094;-49
2022/10/15 02:41:04;;;;;;;;;;;;;;;17.03;48.67;101114.72;5049225;28;1904;-47
2022/10/15 02:43:29;;;;;;;;;;;;;;;18.19;49.89;101107.25;5053965;28;1794;-47
2022/10/15 02:45:55;;;;;;;;;;;;;;;17.57;50.09;101107.19;5050634;28;1111;-49
2022/10/15 02:48:20;;;;;;;;;;;;;;;17.36;49.06;101106.31;5034168;28;1921;-51
2022/10/15 02:50:46;;;;;;;;;;;;;;;18.11;49.68;101103.94;5034362;28;1378;-49
2022/10/15 02:53:12;;;;;;;;;;;;;;;17.48;49.49;101106.91;5051221;28;1164;-46
2022/10/15 02:55:40;;;;;;;;;;;;;;;17.20;48.74;101108.19;5070700;28;1530;-53
2022/10/15 02:58:05;;;;;;;;;;;;;;;17.11;47.80;101107.91;5055779;28;1137;-51
2022/10/15 03:00:31;;;;;;;;;;;;;;;16.97;47.55;101103.97;5054598;28;1228;-49
2022/10/15 03:02:56;;;;;;;;;;;;;;;18.34;48.81;101110.00;5055935;28;1114;-50
2022/10/15 03:05:22;;;;;;;;;;;;;;;17.45;49.54;101111.00;5071177;28;1161;-51
2022/10/15 03:07:47;;;;;;;;;;;;;;;17.21;48.64;101110.69;5054471;28;1917;-49
2022/10/15 03:10:13;;;;;;;;;;;;;;;17.95;49.44;101113.31;5054740;28;1158;-48
2022/10/15 03:12:39;;;;;;;;;;;;;;;17.45;49.07;101101.94;5050758;28;2202;-49
2022/10/15 03:15:05;;;;;;;;;;;;;;;17.26;48.06;101104.34;5054652;28;1110;-56
2022/10/15 03:17:30;;;;;;;;;;;;;;;17.92;48.90;101108.34;5055350;28;1162;-56
2022/10/15 03:19:56;;;;;;;;;;;;;;;17.68;49.45;101100.59;5054467;28;1300;-56
2022/10/15 03:22:21;;;;;;;;;;;;;;;17.38;48.58;101096.69;5055644;28;1147;-56
2022/10/15 03:24:51;;;;;;;;;;;;;;;17.47;48.92;101101.66;5054758;28;1115;-57
2022/10/15 03:27:22;;;;;;;;;;;;;;;17.70;49.19;101098.41;5054366;28;1975;-56
2022/10/15 03:29:47;;;;;;;;;;;;;;;17.37;48.46;101094.22;5065800;28;1327;-56
2022/10/15 03:32:13;;;;;;;;;;;;;;;18.19;48.53;101101.75;5048541;28;1271;-56
2022/10/15 03:34:38;;;;;;;;;;;;;;;17.50;48.78;101106.63;5040395;28;1067;-57
2022/10/15 03:37:05;;;;;;;;;;;;;;;17.84;49.25;101089.59;5037849;28;1254;-55
2022/10/15 03:39:30;;;;;;;;;;;;;;;16.49;53.10;101087.50;5038469;28;1229;-56
2022/10/15 03:42:00;;;;;;;;;;;;;;;15.80;53.40;101087.28;5056383;28;1949;-55
2022/10/15 03:44:33;;;;;;;;;;;;;;;18.26;50.41;101096.81;5057793;28;1289;-56
2022/10/15 03:47:07;;;;;;;;;;;;;;;17.26;50.88;101093.38;5059052;28;2005;-57
2022/10/15 03:49:41;;;;;;;;;;;;;;;17.12;49.15;101097.72;5057953;28;1378;-57
2022/10/15 03:52:07;;;;;;;;;;;;;;;17.81;50.29;101101.16;5058175;28;1193;-55
2022/10/15 03:54:32;;;;;;;;;;;;;;;17.31;49.68;101081.59;5057573;28;1293;-48
2022/10/15 03:56:58;;;;;;;;;;;;;;;17.06;48.64;101089.44;5057171;28;1141;-54
2022/10/15 03:59:29;;;;;;;;;;;;;;;18.04;49.71;101089.66;5069597;28;1209;-53
2022/10/15 04:01:58;;;;;;;;;;;;;;;17.52;49.92;101088.75;5060775;28;1551;-52
2022/10/15 04:04:23;;;;;;;;;;;;;;;17.28;48.89;101086.50;5077646;28;1110;-54
2022/10/15 04:06:49;;;;;;;;;;;;;;;17.73;49.18;101095.09;5078285;28;1905;-53
2022/10/15 04:09:16;;;;;;;;;;;;;;;17.75;49.93;101098.44;5060563;28;1545;-53
2022/10/15 04:11:42;;;;;;;;;;;;;;;17.29;49.32;101101.06;5057974;28;2410;-55
2022/10/15 04:14:07;;;;;;;;;;;;;;;17.41;49.09;101098.91;5059860;28;1324;-56
2022/10/15 04:16:34;;;;;;;;;;;;;;;18.16;49.65;101096.78;5077158;28;1229;-56
2022/10/15 04:19:07;;;;;;;;;;;;;;;17.55;49.22;101098.41;5054683;28;1237;-56
2022/10/15 04:21:32;;;;;;;;;;;;;;;17.28;48.33;101093.94;5040627;28;1607;-57
2022/10/15 04:24:01;;;;;;;;;;;;;;;17.91;49.54;101095.72;5040363;28;1518;-56
2022/10/15 04:26:38;;;;;;;;;;;;;;;17.31;49.08;101093.38;5052238;28;1910;-56
2022/10/15 04:29:04;;;;;;;;;;;;;;;17.76;49.05;101094.56;5060015;28;1107;-56
2022/10/15 04:31:30;;;;;;;;;;;;;;;17.74;49.22;101085.78;5060001;28;1202;-56
2022/10/15 04:33:56;;;;;;;;;;;;;;;17.34;48.78;101087.34;5060273;28;1202;-57
2022/10/15 04:36:22;;;;;;;;;;;;;;;18.03;49.16;101090.75;5060465;28;1276;-57
2022/10/15 04:38:56;;;;;;;;;;;;;;;17.54;49.34;101091.22;5060414;28;1160;-56
2022/10/15 04:41:41;;;;;;;;;;;;;;;17.26;48.38;101096.13;5058129;28;2328;-56
2022/10/15 04:44:10;;;;;;;;;;;;;;;18.51;48.54;101095.94;5059641;28;1325;-56
2022/10/15 04:46:37;;;;;;;;;;;;;;;17.58;49.31;101095.09;5075672;28;1902;-56
2022/10/15 04:49:22;;;;;;;;;;;;;;;17.32;48.39;101095.06;5077275;28;1143;-55
2022/10/15 04:51:49;;;;;;;;;;;;;;;18.37;48.61;101092.09;5055759;28;1171;-56
2022/10/15 04:54:20;;;;;;;;;;;;;;;17.50;49.18;101107.47;5039929;28;1142;-56
2022/10/15 04:56:57;;;;;;;;;;;;;;;17.27;48.17;101108.78;5076562;28;1119;-55
2022/10/15 04:59:23;;;;;;;;;;;;;;;17.66;48.64;101113.81;5059531;28;1166;-57
2022/10/15 05:02:19;;;;;;;;;;;;;;;17.46;48.93;101122.84;5047042;28;1229;-56
2022/10/15 05:04:49;;;;;;;;;;;;;;;17.30;47.80;101119.22;5076530;28;1404;-55
2022/10/15 05:07:15;;;;;;;;;;;;;;;18.25;48.35;101122.66;5077407;28;1913;-50
2022/10/15 05:09:40;;;;;;;;;;;;;;;17.57;48.99;101120.94;5077702;28;1173;-49
2022/10/15 05:12:06;;;;;;;;;;;;;;;17.34;47.94;101119.50;5056453;28;1841;-53
2022/10/15 05:14:32;;;;;;;;;;;;;;;18.09;48.39;101130.94;5075759;28;1345;-56
2022/10/15 05:17:29;;;;;;;;;;;;;;;17.39;48.71;101130.50;5067066;28;1466;-52
2022/10/15 05:19:56;;;;;;;;;;;;;;;17.43;48.68;101123.38;5058815;28;1123;-55
2022/10/15 05:22:25;;;;;;;;;;;;;;;17.73;48.77;101128.13;5058930;28;1154;-52
2022/10/15 05:24:56;;;;;;;;;;;;;;;17.27;48.59;101136.25;5076825;28;1212;-51
2022/10/15 05:27:31;;;;;;;;;;;;;;;17.21;47.35;101129.91;5061666;28;1964;-52
2022/10/15 05:29:58;;;;;;;;;;;;;;;18.34;47.85;101129.28;5058830;28;1359;-51
2022/10/15 05:32:31;;;;;;;;;;;;;;;17.58;48.48;101142.66;5058692;28;1406;-48
2022/10/15 05:34:57;;;;;;;;;;;;;;;17.37;48.34;101140.97;5059029;28;1194;-48
2022/10/15 05:37:31;;;;;;;;;;;;;;;17.81;48.67;101145.19;5058729;28;1139;-49
2022/10/15 05:39:58;;;;;;;;;;;;;;;17.16;51.01;101145.56;5049061;28;1289;-50
2022/10/15 05:42:24;;;;;;;;;;;;;;;17.27;50.53;101158.25;5072635;28;2282;-50
2022/10/15 05:44:55;;;;;;;;;;;;;;;17.15;50.99;101154.88;5058901;28;1135;-47
2022/10/15 05:47:20;;;;;;;;;;;;;;;17.03;51.17;101158.69;5058669;28;2026;-51
2022/10/15 05:49:46;;;;;;;;;;;;;;;16.94;51.64;101163.03;5058523;28;1201;-49
2022/10/15 05:52:16;;;;;;;;;;;;;;;16.84;51.64;101160.19;5044600;28;1353;-52
2022/10/15 05:55:17;;;;;;;;;;;;;;;16.71;51.93;101167.81;5059484;28;1264;-51
2022/10/15 05:57:42;;;;;;;;;;;;;;;16.62;52.33;101172.16;5075878;28;1154;-50
2022/10/15 06:00:08;;;;;;;;;;;;;;;16.56;52.44;101170.44;5075701;28;1182;-55
2022/10/15 06:02:39;;;;;;;;;;;;;;;16.51;52.60;101170.41;5076107;28;1143;-51
2022/10/15 06:05:05;;;;;;;;;;;;;;;16.43;52.63;101172.56;5074830;28;1213;-56
2022/10/15 06:07:31;;;;;;;;;;;;;;;16.37;52.76;101170.88;5064220;28;1898;-52
2022/10/15 06:10:00;;;;;;;;;;;;;;;16.27;52.99;101167.22;5076316;28;1094;-47
2022/10/15 06:12:29;;;;;;;;;;;;;;;16.22;53.15;101159.78;5070927;28;2307;-50
2022/10/15 06:14:54;;;;;;;;;;;;;;;16.15;53.20;101161.91;5066742;28;1267;-48
2022/10/15 06:17:20;;;;;;;;;;;;;;;17.31;51.37;101167.59;5073677;28;1155;-53
2022/10/15 06:19:47;;;;;;;;;;;;;;;17.09;51.55;101162.28;5066198;28;953;-49
2022/10/15 06:22:13;;;;;;;;;;;;;;;16.62;52.95;101163.91;5075156;28;1233;-53
2022/10/15 06:24:38;;;;;;;;;;;;;;;16.43;53.32;101160.75;5057506;28;1151;-53
2022/10/15 06:27:06;;;;;;;;;;;;;;;16.35;53.33;101164.81;5056319;28;1967;-52
2022/10/15 06:29:31;;;;;;;;;;;;;;;16.21;53.81;101166.34;5072262;28;1166;-53
2022/10/15 06:32:00;;;;;;;;;;;;;;;16.14;53.78;101172.03;5075653;28;901;-52
2022/10/15 06:34:26;;;;;;;;;;;;;;;16.46;53.15;101175.88;5074922;28;1166;-53
2022/10/15 06:36:52;;;;;;;;;;;;;;;17.65;50.73;101180.09;5062608;28;1230;-50
2022/10/15 06:39:17;;;;;;;;;;;;;;;16.83;52.77;101180.50;5075916;28;1115;-52
2022/10/15 06:41:43;;;;;;;;;;;;;;;16.53;53.25;101184.72;5072722;28;1844;-54
2022/10/15 06:44:08;;;;;;;;;;;;;;;16.37;53.67;101179.09;5066822;28;861;-53
2022/10/15 06:46:34;;;;;;;;;;;;;;;16.26;53.76;101188.34;5072636;28;1902;-52
2022/10/15 06:48:59;;;;;;;;;;;;;;;16.98;52.68;101191.63;5047035;28;1193;-49
2022/10/15 06:51:25;;;;;;;;;;;;;;;17.46;51.24;101188.84;5076162;28;1138;-53
2022/10/15 06:53:50;;;;;;;;;;;;;;;16.80;53.02;101192.84;5075506;28;1154;-53
2022/10/15 06:56:16;;;;;;;;;;;;;;;16.56;53.47;101197.91;5075725;28;1146;-52
2022/10/15 06:58:43;;;;;;;;;;;;;;;16.36;54.05;101193.91;5075302;28;1222;-52
2022/10/15 07:01:09;;;;;;;;;;;;;;;16.29;54.05;101193.31;5075835;28;1154;-52
2022/10/15 07:03:35;;;;;;;;;;;;;;;16.24;54.09;101196.00;5075847;28;1225;-48
2022/10/15 07:06:02;;;;;;;;;;;;;;;16.08;54.10;101187.63;5075640;28;1162;-50
2022/10/15 07:08:27;;;;;;;;;;;;;;;17.26;52.13;101186.81;5072324;28;1972;-48
2022/10/15 07:10:53;;;;;;;;;;;;;;;17.01;52.67;101188.34;5078270;28;1174;-49
2022/10/15 07:13:19;;;;;;;;;;;;;;;16.61;53.74;101189.72;5079501;28;2539;-51
2022/10/15 07:15:48;;;;;;;;;;;;;;;16.36;54.26;101188.41;5079467;28;1103;-50
2022/10/15 07:18:13;;;;;;;;;;;;;;;16.29;54.35;101197.97;5068257;28;1146;-49
2022/10/15 07:20:39;;;;;;;;;;;;;;;17.21;52.65;101195.06;5063721;28;1154;-50
2022/10/15 07:23:05;;;;;;;;;;;;;;;17.20;52.40;101194.22;5068526;28;1430;-50
2022/10/15 07:25:32;;;;;;;;;;;;;;;16.67;53.79;101198.81;5076100;28;1151;-52
2022/10/15 07:27:58;;;;;;;;;;;;;;;16.51;53.90;101195.97;5073746;28;1897;-52
2022/10/15 07:30:26;;;;;;;;;;;;;;;16.37;54.24;101203.81;5059186;28;1187;-52
2022/10/15 07:32:51;;;;;;;;;;;;;;;16.25;54.26;101189.44;5062487;28;1084;-49
2022/10/15 07:35:17;;;;;;;;;;;;;;;16.17;54.55;101207.22;5079112;28;1163;-48
2022/10/15 07:37:42;;;;;;;;;;;;;;;17.21;52.79;101206.88;5078977;28;1107;-51
2022/10/15 07:40:08;;;;;;;;;;;;;;;17.06;52.64;101213.09;5079174;28;1091;-51
2022/10/15 07:42:33;;;;;;;;;;;;;;;16.61;54.08;101203.44;5068417;28;2212;-49
2022/10/15 07:44:59;;;;;;;;;;;;;;;16.43;54.28;101199.19;5076495;28;1100;-49
2022/10/15 07:47:24;;;;;;;;;;;;;;;16.32;54.38;101211.97;5078789;28;1902;-53
2022/10/15 07:49:50;;;;;;;;;;;;;;;16.23;54.45;101213.56;5078889;28;1160;-54
2022/10/15 07:52:15;;;;;;;;;;;;;;;16.18;54.78;101210.78;5078843;28;1172;-51
2022/10/15 07:54:41;;;;;;;;;;;;;;;17.64;51.58;101201.25;5079324;28;1123;-52
2022/10/15 07:57:06;;;;;;;;;;;;;;;16.92;53.50;101211.91;5069586;28;1293;-53
2022/10/15 07:59:33;;;;;;;;;;;;;;;16.55;54.42;101212.72;5078569;28;1206;-54
2022/10/15 08:01:59;;;;;;;;;;;;;;;16.40;54.52;101211.50;5078263;28;1162;-49
2022/10/15 08:04:24;;;;;;;;;;;;;;;16.30;54.60;101216.06;5078936;28;1118;-50
2022/10/15 08:06:50;;;;;;;;;;;;;;;16.20;54.90;101211.31;5078560;28;1913;-50
2022/10/15 08:09:15;;;;;;;;;;;;;;;16.58;54.52;101206.72;5060198;28;1353;-52
2022/10/15 08:11:41;;;;;;;;;;;;;;;17.54;52.03;101198.47;5075234;28;2253;-53
2022/10/15 08:14:08;;;;;;;;;;;;;;;16.80;53.75;101208.50;5075935;28;1246;-50
2022/10/15 08:16:34;;;;;;;;;;;;;;;16.58;54.30;101195.75;5059271;28;1300;-51
2022/10/15 08:18:59;;;;;;;;;;;;;;;16.38;54.78;101204.63;5058356;28;1107;-52
2022/10/15 08:21:25;;;;;;;;;;;;;;;16.28;54.85;101197.13;5060841;28;1075;-50
2022/10/15 08:23:51;;;;;;;;;;;;;;;16.17;54.78;101206.34;5069278;28;1465;-55
2022/10/15 08:26:16;;;;;;;;;;;;;;;16.33;54.87;101188.94;5058867;28;1138;-56
2022/10/15 08:28:42;;;;;;;;;;;;;;;17.68;51.92;101196.84;5071183;28;1971;-55
2022/10/15 08:31:07;;;;;;;;;;;;;;;16.83;53.92;101197.84;5057782;28;1228;-56
2022/10/15 08:33:33;;;;;;;;;;;;;;;16.56;54.82;101197.91;5069436;28;900;-56
2022/10/15 08:35:58;;;;;;;;;;;;;;;16.42;54.66;101203.00;5074859;28;1146;-56
2022/10/15 08:38:24;;;;;;;;;;;;;;;16.31;54.88;101206.75;5057888;28;1120;-55
2022/10/15 08:40:56;;;;;;;;;;;;;;;16.24;54.91;101194.09;5062372;28;1209;-52
2022/10/15 08:43:33;;;;;;;;;;;;;;;17.60;52.24;101200.16;5056362;28;2670;-55
2022/10/15 08:46:03;;;;;;;;;;;;;;;16.82;54.34;101207.16;5078192;28;1016;-56
2022/10/15 08:48:32;;;;;;;;;;;;;;;16.57;54.55;101205.06;5077579;28;1894;-56
2022/10/15 08:51:02;;;;;;;;;;;;;;;16.45;54.71;101209.91;5077685;28;1189;-56
2022/10/15 08:53:28;;;;;;;;;;;;;;;16.75;54.54;101218.38;5076211;28;1190;-58
2022/10/15 08:55:54;;;;;;;;;;;;;;;17.59;52.19;101215.81;5059453;28;1174;-56
2022/10/15 08:58:24;;;;;;;;;;;;;;;16.88;54.27;101210.75;5077704;28;1122;-57
2022/10/15 09:00:50;;;;;;;;;;;;;;;16.62;54.67;101224.31;5063326;28;1557;-59
2022/10/15 09:03:16;;;;;;;;;;;;;;;16.42;54.91;101223.06;5059965;28;1241;-59
2022/10/15 09:05:49;;;;;;;;;;;;;;;16.38;55.06;101219.19;5077453;28;1139;-59
2022/10/15 09:08:23;;;;;;;;;;;;;;;16.25;55.12;101214.13;5076978;28;1902;-57
2022/10/15 09:10:50;;;;;;;;;;;;;;;16.18;55.22;101217.06;5077083;28;1126;-59
2022/10/15 09:13:27;;;;;;;;;;;;;;;17.64;52.54;101226.00;5075662;28;1890;-59
2022/10/15 09:16:00;;;;;;;;;;;;;;;16.79;54.65;101218.69;5077250;28;1134;-57
2022/10/15 09:18:26;;;;;;;;;;;;;;;16.55;55.04;101224.53;5077191;28;1142;-57
2022/10/15 09:20:52;;;;;;;;;;;;;;;16.40;55.26;101227.16;5076028;28;1131;-55
2022/10/15 09:23:21;;;;;;;;;;;;;;;16.26;55.38;101232.25;5077078;28;1122;-56
2022/10/15 09:25:50;;;;;;;;;;;;;;;16.22;55.37;101228.38;5077151;28;1134;-56
2022/10/15 09:28:15;;;;;;;;;;;;;;;17.74;52.23;101234.28;5075426;28;1901;-56
2022/10/15 09:30:44;;;;;;;;;;;;;;;17.01;54.15;101225.97;5075642;28;1254;-56
2022/10/15 09:33:15;;;;;;;;;;;;;;;16.66;54.76;101232.84;5075680;28;1222;-56
2022/10/15 09:35:51;;;;;;;;;;;;;;;16.45;55.15;101232.66;5076724;28;1300;-55
2022/10/15 09:38:20;;;;;;;;;;;;;;;16.30;55.44;101225.16;5045106;28;1116;-55
2022/10/15 09:41:09;;;;;;;;;;;;;;;16.36;55.46;101237.81;5074626;28;1150;-56
2022/10/15 09:43:40;;;;;;;;;;;;;;;17.53;52.64;101232.56;5059117;28;2554;-55
2022/10/15 09:46:05;;;;;;;;;;;;;;;16.82;54.43;101233.81;5076439;28;889;-55
2022/10/15 09:48:32;;;;;;;;;;;;;;;16.54;55.27;101242.09;5075094;28;1897;-56
2022/10/15 09:50:59;;;;;;;;;;;;;;;16.44;55.44;101247.50;5058731;28;1143;-56
2022/10/15 09:53:44;;;;;;;;;;;;;;;16.29;55.44;101237.22;5058387;28;1249;-56
2022/10/15 09:56:22;;;;;;;;;;;;;;;17.20;53.99;101235.44;5059106;28;1139;-56
2022/10/15 09:58:51;;;;;;;;;;;;;;;17.39;53.41;101238.56;5058068;28;1080;-56
2022/10/15 10:01:20;;;;;;;;;;;;;;;16.76;54.83;101242.00;5058459;28;1222;-56
2022/10/15 10:03:47;;;;;;;;;;;;;;;16.52;55.36;101238.81;5075985;28;1111;-56
2022/10/15 10:06:13;;;;;;;;;;;;;;;16.42;55.38;101239.53;5074969;28;1209;-56
2022/10/15 10:08:47;;;;;;;;;;;;;;;16.32;55.20;101242.16;5055520;28;1906;-56
2022/10/15 10:11:13;;;;;;;;;;;;;;;16.22;55.53;101242.91;5066857;28;1187;-57
2022/10/15 10:13:38;;;;;;;;;;;;;;;17.01;54.48;101247.94;5055311;28;2209;-57
2022/10/15 10:16:04;;;;;;;;;;;;;;;17.47;53.41;101244.63;5076274;28;1193;-57
2022/10/15 10:18:31;;;;;;;;;;;;;;;16.79;54.93;101250.78;5044051;28;1139;-57
2022/10/15 10:21:03;;;;;;;;;;;;;;;16.58;55.34;101245.16;5056033;28;1150;-57
2022/10/15 10:23:33;;;;;;;;;;;;;;;16.41;55.35;101251.59;5068598;28;1131;-57
2022/10/15 10:26:00;;;;;;;;;;;;;;;16.29;55.45;101250.94;5076099;28;1115;-57
2022/10/15 10:28:45;;;;;;;;;;;;;;;16.17;55.42;101255.75;5075994;28;1894;-56
2022/10/15 10:31:11;;;;;;;;;;;;;;;16.57;55.18;101252.53;5062147;28;1128;-56
2022/10/15 10:33:42;;;;;;;;;;;;;;;17.60;53.23;101257.91;5054517;28;1233;-55
2022/10/15 10:36:17;;;;;;;;;;;;;;;16.80;55.05;101253.25;5075059;28;1104;-56
2022/10/15 10:38:43;;;;;;;;;;;;;;;16.50;55.57;101242.88;5075642;28;1111;-56
2022/10/15 10:41:09;;;;;;;;;;;;;;;16.40;55.43;101254.59;5059315;28;1493;-56
2022/10/15 10:43:35;;;;;;;;;;;;;;;16.26;55.71;101243.22;5057276;28;2674;-56
2022/10/15 10:46:13;;;;;;;;;;;;;;;16.18;55.76;101251.91;5062365;28;1162;-57
2022/10/15 10:48:45;;;;;;;;;;;;;;;16.89;54.93;101261.91;5062687;28;1897;-55
2022/10/15 10:51:12;;;;;;;;;;;;;;;17.36;53.87;101261.09;5075557;28;1170;-52
2022/10/15 10:53:44;;;;;;;;;;;;;;;16.74;55.34;101246.91;5059792;28;1142;-56
2022/10/15 10:56:10;;;;;;;;;;;;;;;16.48;55.70;101256.88;5055192;28;1151;-54
2022/10/15 10:58:35;;;;;;;;;;;;;;;16.33;55.99;101251.25;5049561;28;1191;-55
2022/10/15 11:01:01;;;;;;;;;;;;;;;16.24;55.75;101251.72;5075553;28;1201;-56
2022/10/15 11:03:36;;;;;;;;;;;;;;;17.71;53.07;101248.59;5057689;28;1174;-55
2022/10/15 11:06:10;;;;;;;;;;;;;;;16.91;54.97;101248.72;5072169;28;1292;-55
2022/10/15 11:08:49;;;;;;;;;;;;;;;16.56;55.67;101252.81;5055592;28;1903;-55
2022/10/15 11:11:21;;;;;;;;;;;;;;;16.40;55.84;101241.69;5053178;28;1064;-55
2022/10/15 11:14:06;;;;;;;;;;;;;;;16.31;55.54;101250.66;5049381;28;1108;-57
2022/10/15 11:16:35;;;;;;;;;;;;;;;16.21;55.88;101251.41;5060946;28;1518;-56
2022/10/15 11:19:11;;;;;;;;;;;;;;;16.97;54.75;101247.69;5065125;28;1194;-56
2022/10/15 11:21:48;;;;;;;;;;;;;;;17.24;54.07;101247.53;5051424;28;1186;-56
2022/10/15 11:24:14;;;;;;;;;;;;;;;16.70;55.45;101270.50;5055647;28;1135;-57
2022/10/15 11:27:01;;;;;;;;;;;;;;;16.50;55.66;101251.94;5038037;28;1987;-57
2022/10/15 11:29:46;;;;;;;;;;;;;;;16.29;55.76;101248.19;5055276;28;1107;-56
2022/10/15 11:32:16;;;;;;;;;;;;;;;16.23;55.78;101243.75;5037446;28;1111;-56
2022/10/15 11:34:48;;;;;;;;;;;;;;;16.10;56.03;101238.66;5040261;28;1350;-56
2022/10/15 11:37:20;;;;;;;;;;;;;;;16.31;55.74;101240.50;5075312;28;1115;-56
2022/10/15 11:39:52;;;;;;;;;;;;;;;17.75;53.03;101246.97;5074990;28;1138;-56
2022/10/15 11:42:24;;;;;;;;;;;;;;;16.96;54.89;101239.66;5074671;28;2299;-56
2022/10/15 11:45:02;;;;;;;;;;;;;;;16.59;55.47;101242.16;5075189;28;1154;-56
2022/10/15 11:48:00;;;;;;;;;;;;;;;16.39;55.72;101250.19;5075080;28;1913;-57
2022/10/15 11:50:28;;;;;;;;;;;;;;;16.48;55.99;101256.88;5041423;28;1443;-56
2022/10/15 11:53:04;;;;;;;;;;;;;;;17.70;53.00;101249.69;5075147;28;1245;-55
2022/10/15 11:55:40;;;;;;;;;;;;;;;16.87;55.22;101247.56;5061060;28;1099;-56
2022/10/15 11:58:10;;;;;;;;;;;;;;;16.57;55.71;101246.25;5078186;28;1107;-56
2022/10/15 12:00:38;;;;;;;;;;;;;;;16.41;55.94;101245.25;5055627;28;1064;-56
2022/10/15 12:03:24;;;;;;;;;;;;;;;16.30;55.63;101238.88;5078647;28;1217;-56
2022/10/15 12:05:51;;;;;;;;;;;;;;;16.20;55.95;101242.34;5066055;28;1243;-57
2022/10/15 12:08:16;;;;;;;;;;;;;;;16.81;55.38;101232.13;5066963;28;1913;-56
2022/10/15 12:10:51;;;;;;;;;;;;;;;17.53;53.62;101240.81;5055055;28;1171;-52
2022/10/15 12:13:25;;;;;;;;;;;;;;;16.83;55.37;101235.44;5078106;28;2656;-53
2022/10/15 12:16:20;;;;;;;;;;;;;;;16.49;55.66;101244.78;5077182;28;1135;-50
2022/10/15 12:19:11;;;;;;;;;;;;;;;16.35;55.77;101244.38;4978887;28;1228;-56
2022/10/15 12:21:42;;;;;;;;;;;;;;;16.78;55.43;101244.47;5048008;28;1182;-57
2022/10/15 12:24:26;;;;;;;;;;;;;;;17.64;53.34;101241.69;5078356;28;1115;-58
2022/10/15 12:26:51;;;;;;;;;;;;;;;16.84;55.19;101243.41;5058371;28;1910;-58
2022/10/15 12:29:20;;;;;;;;;;;;;;;16.58;55.80;101250.66;5058457;28;1130;-58
2022/10/15 12:31:47;;;;;;;;;;;;;;;16.42;55.74;101247.78;5063684;28;1119;-58
2022/10/15 12:34:23;;;;;;;;;;;;;;;16.31;55.94;101250.66;5072026;28;1138;-54
2022/10/15 12:36:56;;;;;;;;;;;;;;;16.25;55.45;101249.78;5076959;28;1183;-55
2022/10/15 12:39:22;;;;;;;;;;;;;;;17.28;54.31;101256.09;5068089;28;1288;-55
2022/10/15 12:41:48;;;;;;;;;;;;;;;17.18;54.51;101253.28;5072007;28;1828;-56
2022/10/15 12:44:17;;;;;;;;;;;;;;;16.69;55.53;101252.38;5069830;28;1143;-56
2022/10/15 12:46:42;;;;;;;;;;;;;;;16.49;55.69;101255.78;5062135;28;1265;-56
2022/10/15 12:49:26;;;;;;;;;;;;;;;16.32;55.80;101261.38;5076566;28;1974;-52
2022/10/15 12:51:55;;;;;;;;;;;;;;;16.55;55.95;101262.13;5077676;28;1245;-53
2022/10/15 12:54:35;;;;;;;;;;;;;;;17.55;53.40;101252.38;5077812;28;1135;-52
2022/10/15 12:57:03;;;;;;;;;;;;;;;16.81;55.38;101254.94;5077301;28;1170;-51